Time;durP1;ratioP1;P1;durP2;ratioP2;P2;SDS_P1;SDS_P2;PMS_P1;PMS_P2;Temp;Humidity;BMP_temperature;BMP_pressure;BME280_temperature;BME280_humidity;BME280_pressure;Samples;Min_cycle;Max_cycle;Signal;HPM_P1;HPM_P2
2023/05/15 00:00:26;;;;;;;;;9.50;8.50;;;;;12.50;66.39;99632.72;5116803;28;8832;-62
2023/05/15 00:02:55;;;;;;;;;10.00;7.00;;;;;12.48;66.53;99632.03;5116708;28;8840;-62
2023/05/15 00:05:24;;;;;;;;;11.00;10.00;;;;;12.46;66.83;99634.84;5117026;28;8890;-62
2023/05/15 00:07:52;;;;;;;;;7.50;7.50;;;;;12.48;66.89;99637.38;5117326;28;8808;-59
2023/05/15 00:10:20;;;;;;;;;7.50;6.50;;;;;12.44;66.46;99638.63;5116812;28;8816;-61
2023/05/15 00:12:47;;;;;;;;;6.75;6.75;;;;;12.34;66.46;99630.66;5116250;28;8832;-60
2023/05/15 00:15:15;;;;;;;;;8.25;7.50;;;;;12.26;66.94;99626.97;5116468;28;8812;-61
2023/05/15 00:17:43;;;;;;;;;7.50;7.50;;;;;12.20;66.83;99627.53;5116321;28;8844;-62
2023/05/15 00:20:11;;;;;;;;;8.00;8.00;;;;;12.13;67.21;99624.59;5116479;28;8816;-60
2023/05/15 00:22:39;;;;;;;;;6.00;5.25;;;;;12.07;67.76;99629.66;5115923;28;8804;-61
2023/05/15 00:25:06;;;;;;;;;8.50;6.50;;;;;12.03;67.68;99625.56;5115918;28;8844;-59
2023/05/15 00:27:34;;;;;;;;;7.00;7.00;;;;;11.98;67.69;99625.97;5115847;28;8827;-62
2023/05/15 00:30:01;;;;;;;;;6.50;6.00;;;;;11.98;67.82;99626.97;5116263;28;8824;-61
2023/05/15 00:32:29;;;;;;;;;9.00;7.50;;;;;11.95;67.19;99636.09;5116702;28;9497;-60
2023/05/15 00:34:57;;;;;;;;;9.75;9.00;;;;;11.93;67.42;99627.38;5115904;28;8817;-61
2023/05/15 00:37:24;;;;;;;;;7.00;6.25;;;;;11.92;67.35;99639.03;5115598;28;8813;-59
2023/05/15 00:39:52;;;;;;;;;8.00;7.00;;;;;11.90;67.41;99622.31;5116180;28;8824;-61
2023/05/15 00:42:20;;;;;;;;;9.00;9.00;;;;;11.89;67.77;99620.63;5115431;28;8812;-61
2023/05/15 00:44:47;;;;;;;;;5.00;4.00;;;;;11.87;67.20;99622.59;5115826;28;8812;-61
2023/05/15 00:47:15;;;;;;;;;8.75;8.50;;;;;11.87;67.54;99616.41;5116087;28;8812;-62
2023/05/15 00:49:43;;;;;;;;;5.00;4.00;;;;;11.84;67.39;99622.84;5116066;28;8844;-59
2023/05/15 00:52:10;;;;;;;;;8.25;8.25;;;;;11.82;67.65;99624.81;5117263;28;8839;-61
2023/05/15 00:54:38;;;;;;;;;7.50;7.00;;;;;11.79;67.75;99624.25;5119663;28;8804;-61
2023/05/15 00:57:06;;;;;;;;;9.00;6.25;;;;;11.71;67.94;99616.94;5120563;28;8871;-60
2023/05/15 00:59:34;;;;;;;;;7.75;6.50;;;;;11.67;67.65;99610.19;5120078;28;8849;-61
2023/05/15 01:02:01;;;;;;;;;10.50;9.50;;;;;11.61;67.57;99618.72;5120110;28;8823;-61
2023/05/15 01:04:29;;;;;;;;;9.50;7.50;;;;;11.57;67.80;99616.44;5120254;28;8863;-62
2023/05/15 01:06:56;;;;;;;;;6.25;6.25;;;;;11.54;68.23;99612.22;5119999;28;8796;-61
2023/05/15 01:09:24;;;;;;;;;9.25;7.50;;;;;11.51;68.28;99612.50;5119757;28;8821;-61
2023/05/15 01:11:52;;;;;;;;;3.00;3.00;;;;;11.45;68.26;99613.03;5120100;28;8797;-61
2023/05/15 01:14:19;;;;;;;;;9.75;7.50;;;;;11.41;67.81;99614.31;5119589;28;8843;-60
2023/05/15 01:16:47;;;;;;;;;10.00;10.00;;;;;11.37;68.42;99618.19;5119426;28;8812;-61
2023/05/15 01:19:15;;;;;;;;;7.50;7.25;;;;;11.35;68.08;99616.66;5119145;28;8824;-61
2023/05/15 01:21:43;;;;;;;;;4.50;4.50;;;;;11.31;68.47;99608.06;5119586;28;8812;-61
2023/05/15 01:24:11;;;;;;;;;7.00;7.00;;;;;11.28;68.52;99608.34;5119106;28;8820;-61
2023/05/15 01:26:38;;;;;;;;;9.50;9.00;;;;;11.24;68.10;99614.91;5119427;28;8831;-61
2023/05/15 01:29:06;;;;;;;;;8.00;8.00;;;;;11.21;68.58;99612.53;5119352;28;8812;-61
2023/05/15 01:31:34;;;;;;;;;10.00;8.50;;;;;11.18;68.82;99610.16;5119733;28;8839;-61
2023/05/15 01:34:02;;;;;;;;;9.00;8.00;;;;;11.15;68.72;99607.72;5108505;28;8818;-62
2023/05/15 01:36:29;;;;;;;;;8.00;8.00;;;;;11.13;68.77;99607.03;5120016;28;8829;-60
2023/05/15 01:38:57;;;;;;;;;6.00;5.00;;;;;11.13;68.80;99609.69;5119460;28;8843;-61
2023/05/15 01:41:24;;;;;;;;;9.25;7.00;;;;;11.14;68.64;99608.72;5120048;28;8827;-62
2023/05/15 01:43:54;;;;;;;;;6.00;6.00;;;;;11.15;68.83;99612.22;5120155;28;9498;-62
2023/05/15 01:46:22;;;;;;;;;9.50;8.50;;;;;11.15;68.39;99605.06;5120452;28;8828;-62
2023/05/15 01:48:50;;;;;;;;;9.50;7.50;;;;;11.16;68.63;99604.09;5119599;28;8816;-60
2023/05/15 01:51:17;;;;;;;;;9.00;8.50;;;;;11.16;68.69;99597.94;5119349;28;8828;-61
2023/05/15 01:53:45;;;;;;;;;7.50;6.00;;;;;11.16;68.84;99608.59;5119417;28;8819;-61
2023/05/15 01:56:13;;;;;;;;;9.00;7.00;;;;;11.14;68.36;99603.38;5105654;28;8800;-62
2023/05/15 01:58:40;;;;;;;;;9.00;7.00;;;;;11.11;68.68;99594.81;5119117;28;8816;-61
2023/05/15 02:01:08;;;;;;;;;8.00;8.00;;;;;11.07;68.48;99604.91;5119136;28;8804;-61
2023/05/15 02:03:36;;;;;;;;;6.50;6.50;;;;;11.02;69.21;99590.28;5118834;28;8913;-62
2023/05/15 02:06:04;;;;;;;;;9.75;8.50;;;;;10.97;68.64;99604.00;5119428;28;9027;-59
2023/05/15 02:08:32;;;;;;;;;7.50;7.00;;;;;10.92;69.33;99603.56;5098848;28;8822;-61
2023/05/15 02:11:00;;;;;;;;;9.50;9.25;;;;;10.88;69.22;99596.81;5106775;28;8928;-60
2023/05/15 02:13:28;;;;;;;;;9.75;8.50;;;;;10.84;69.40;99600.72;5118516;28;8940;-59
2023/05/15 02:15:56;;;;;;;;;9.00;7.00;;;;;10.80;69.08;99591.31;5119414;28;8824;-60
2023/05/15 02:18:23;;;;;;;;;10.50;10.50;;;;;10.76;69.48;99595.19;5118465;28;8804;-61
2023/05/15 02:20:51;;;;;;;;;7.00;6.25;;;;;10.72;69.42;99592.94;5118752;28;8820;-60
2023/05/15 02:23:19;;;;;;;;;5.00;5.00;;;;;10.66;69.74;99596.13;5118523;28;8843;-61
2023/05/15 02:25:46;;;;;;;;;6.00;6.00;;;;;10.63;69.18;99585.75;5118426;28;8788;-60
2023/05/15 02:28:14;;;;;;;;;10.00;10.00;;;;;10.60;69.31;99589.50;5118482;28;8793;-59
2023/05/15 02:30:42;;;;;;;;;8.50;6.75;;;;;10.58;69.83;99583.47;5118634;28;8844;-59
2023/05/15 02:33:10;;;;;;;;;8.50;7.00;;;;;10.58;69.90;99588.81;5118159;28;8866;-60
2023/05/15 02:35:38;;;;;;;;;9.25;8.00;;;;;10.58;69.30;99580.81;5118515;28;8832;-59
2023/05/15 02:38:05;;;;;;;;;6.50;6.50;;;;;10.57;69.81;99589.78;5118221;28;8808;-59
2023/05/15 02:40:33;;;;;;;;;7.50;7.00;;;;;10.57;69.50;99588.91;5118241;28;8819;-59
2023/05/15 02:43:00;;;;;;;;;9.00;7.00;;;;;10.58;69.79;99586.13;5118246;28;8898;-59
2023/05/15 02:45:28;;;;;;;;;4.00;4.00;;;;;10.63;69.32;99583.91;5118832;28;8865;-60
2023/05/15 02:47:56;;;;;;;;;5.75;5.00;;;;;10.65;69.53;99591.78;5118249;28;8816;-59
2023/05/15 02:50:24;;;;;;;;;6.50;6.50;;;;;10.60;69.47;99584.19;5118017;28;8805;-61
2023/05/15 02:52:52;;;;;;;;;9.00;7.00;;;;;10.53;69.70;99588.34;5117890;28;8902;-62
2023/05/15 02:55:19;;;;;;;;;5.00;5.00;;;;;10.47;69.62;99580.88;5118082;28;8848;-62
2023/05/15 02:57:47;;;;;;;;;6.25;6.00;;;;;10.43;69.89;99581.25;5117636;28;8908;-61
2023/05/15 03:00:16;;;;;;;;;8.50;8.00;;;;;10.38;69.94;99579.00;5118124;28;8801;-61
2023/05/15 03:02:44;;;;;;;;;5.75;5.75;;;;;10.36;70.37;99583.59;5118422;28;8828;-60
2023/05/15 03:05:11;;;;;;;;;9.50;9.00;;;;;10.35;70.06;99587.25;5117755;28;8852;-59
2023/05/15 03:07:40;;;;;;;;;6.25;6.00;;;;;10.33;69.75;99581.19;5117812;28;8836;-60
2023/05/15 03:10:07;;;;;;;;;9.00;8.50;;;;;10.32;69.96;99584.00;5117847;28;8812;-60
2023/05/15 03:12:36;;;;;;;;;5.50;5.00;;;;;10.30;70.29;99578.78;5117896;28;8819;-60
2023/05/15 03:15:03;;;;;;;;;9.25;9.00;;;;;10.28;70.02;99571.91;5116855;28;8808;-61
2023/05/15 03:17:31;;;;;;;;;7.00;6.25;;;;;10.26;69.90;99580.00;5116826;28;8824;-61
2023/05/15 03:19:58;;;;;;;;;10.00;6.75;;;;;10.26;70.32;99579.19;5117462;28;8816;-61
2023/05/15 03:22:26;;;;;;;;;11.00;9.50;;;;;10.24;70.04;99573.97;5117083;28;8808;-61
2023/05/15 03:24:54;;;;;;;;;7.00;6.75;;;;;10.25;69.89;99572.19;5117436;28;8889;-60
2023/05/15 03:27:21;;;;;;;;;9.00;9.00;;;;;10.24;69.88;99573.16;5117082;28;8828;-60
2023/05/15 03:29:49;;;;;;;;;5.00;4.00;;;;;10.22;70.19;99573.28;5117847;28;8820;-61
2023/05/15 03:32:17;;;;;;;;;7.00;7.00;;;;;10.20;69.79;99577.91;5117260;28;9448;-58
2023/05/15 03:34:45;;;;;;;;;5.50;5.50;;;;;10.18;70.25;99579.81;5117328;28;8829;-61
2023/05/15 03:37:13;;;;;;;;;7.50;6.75;;;;;10.16;70.38;99581.78;5117525;28;8827;-61
2023/05/15 03:39:40;;;;;;;;;6.50;6.50;;;;;10.16;70.29;99570.31;5117321;28;8874;-61
2023/05/15 03:42:08;;;;;;;;;7.00;7.00;;;;;10.15;70.16;99577.41;5117019;28;8836;-60
2023/05/15 03:44:35;;;;;;;;;7.00;6.50;;;;;10.15;70.17;99569.44;5117728;28;8850;-59
2023/05/15 03:47:03;;;;;;;;;8.50;8.50;;;;;10.14;69.89;99570.41;5117284;28;8903;-60
2023/05/15 03:49:31;;;;;;;;;6.50;6.50;;;;;10.12;70.27;99571.50;5117269;28;8812;-60
2023/05/15 03:51:58;;;;;;;;;9.00;8.75;;;;;10.09;70.41;99580.59;5117280;28;8813;-60
2023/05/15 03:54:26;;;;;;;;;11.00;8.50;;;;;10.09;70.01;99587.75;5117010;28;8829;-60
2023/05/15 03:56:54;;;;;;;;;5.50;3.75;;;;;10.09;70.32;99583.25;5116911;28;8813;-59
2023/05/15 03:59:22;;;;;;;;;7.00;7.00;;;;;10.08;70.57;99580.75;5117267;28;8895;-60
2023/05/15 04:01:50;;;;;;;;;12.25;12.25;;;;;10.09;70.77;99587.75;5117197;28;8825;-60
2023/05/15 04:04:30;;;;;;;;;7.00;7.00;;;;;10.10;70.47;99590.25;5116917;28;8838;-61
2023/05/15 04:06:58;;;;;;;;;1.00;1.00;;;;;10.11;69.97;99569.81;5117170;28;8894;-61
2023/05/15 04:09:26;;;;;;;;;7.00;7.00;;;;;10.13;70.41;99578.53;5116810;28;8839;-59
2023/05/15 04:11:54;;;;;;;;;9.25;7.00;;;;;10.16;70.25;99594.25;5116924;28;8817;-60
2023/05/15 04:14:21;;;;;;;;;9.00;9.00;;;;;10.25;70.06;99581.00;5116697;28;8828;-59
2023/05/15 04:16:49;;;;;;;;;9.25;8.50;;;;;10.34;69.85;99585.56;5116125;28;8824;-59
2023/05/15 04:19:16;;;;;;;;;13.00;11.25;;;;;10.42;69.40;99584.91;5115222;28;8823;-60
2023/05/15 04:21:44;;;;;;;;;5.00;4.00;;;;;10.52;69.40;99586.66;5116041;28;8840;-59
2023/05/15 04:24:13;;;;;;;;;9.00;7.50;;;;;10.62;69.34;99589.38;5116470;28;8874;-60
2023/05/15 04:26:40;;;;;;;;;7.50;7.50;;;;;10.74;69.01;99597.16;5115688;28;8828;-61
2023/05/15 04:29:08;;;;;;;;;9.00;6.50;;;;;10.84;68.58;99592.72;5116157;28;8821;-61
2023/05/15 04:31:37;;;;;;;;;8.00;7.00;;;;;10.91;68.31;99596.53;5116358;28;9550;-59
2023/05/15 04:34:05;;;;;;;;;6.25;5.00;;;;;10.97;68.70;99595.16;5115109;28;9050;-60
2023/05/15 04:36:33;;;;;;;;;16.25;14.50;;;;;11.04;68.18;99583.84;5113990;28;8863;-59
2023/05/15 04:39:00;;;;;;;;;13.00;12.75;;;;;11.15;68.41;99588.25;5114469;28;8840;-59
2023/05/15 04:41:29;;;;;;;;;21.50;20.00;;;;;11.30;67.72;99589.56;5114550;28;8812;-60
2023/05/15 04:43:56;;;;;;;;;22.50;19.50;;;;;11.44;67.51;99587.34;5115203;28;8816;-61
2023/05/15 04:46:24;;;;;;;;;27.75;25.00;;;;;11.57;67.89;99587.97;5115191;28;8823;-60
2023/05/15 04:48:52;;;;;;;;;23.50;19.25;;;;;11.72;67.24;99585.75;5115817;28;8957;-61
2023/05/15 04:51:19;;;;;;;;;20.00;18.50;;;;;11.84;66.96;99580.16;5115578;28;9567;-61
2023/05/15 04:53:47;;;;;;;;;28.75;25.25;;;;;11.97;67.43;99578.06;5115626;28;8819;-60
2023/05/15 04:56:14;;;;;;;;;28.50;21.00;;;;;12.08;66.95;99572.63;5115790;28;8824;-61
2023/05/15 04:58:43;;;;;;;;;29.75;23.25;;;;;12.20;66.17;99566.13;5115538;28;8867;-61
2023/05/15 05:01:11;;;;;;;;;26.75;23.50;;;;;12.32;66.19;99570.34;5115293;28;8868;-60
2023/05/15 05:03:39;;;;;;;;;32.00;24.75;;;;;12.41;66.29;99574.84;5115402;28;8816;-61
2023/05/15 05:06:07;;;;;;;;;27.25;25.75;;;;;12.50;66.26;99573.97;5115262;28;8824;-60
2023/05/15 05:08:34;;;;;;;;;30.50;29.00;;;;;12.57;65.99;99570.59;5115122;28;8864;-61
2023/05/15 05:11:02;;;;;;;;;27.75;22.25;;;;;12.65;66.50;99570.72;5114423;28;8832;-61
2023/05/15 05:13:30;;;;;;;;;31.25;27.00;;;;;12.75;66.22;99570.69;5114990;28;9118;-61
2023/05/15 05:15:58;;;;;;;;;35.50;28.50;;;;;12.83;66.13;99573.50;5113745;28;8823;-61
2023/05/15 05:18:26;;;;;;;;;34.00;29.00;;;;;12.89;66.45;99572.88;5113750;28;8850;-61
2023/05/15 05:20:54;;;;;;;;;29.25;27.00;;;;;12.93;65.96;99568.94;5114093;28;8962;-60
2023/05/15 05:23:21;;;;;;;;;39.50;31.00;;;;;12.98;66.18;99570.22;5114095;28;8827;-59
2023/05/15 05:25:49;;;;;;;;;35.00;30.00;;;;;13.02;65.99;99573.44;5113611;28;8820;-59
2023/05/15 05:28:17;;;;;;;;;36.00;33.00;;;;;13.03;66.07;99573.31;5114277;28;8901;-59
2023/05/15 05:30:45;;;;;;;;;19.00;16.00;;;;;13.08;66.27;99570.19;5114155;28;8832;-59
2023/05/15 05:33:12;;;;;;;;;30.75;26.75;;;;;13.12;66.24;99569.75;5113845;28;8854;-59
2023/05/15 05:35:40;;;;;;;;;30.00;26.25;;;;;13.17;66.41;99569.31;5114315;28;8856;-61
2023/05/15 05:38:08;;;;;;;;;36.00;33.75;;;;;13.21;66.13;99571.53;5114550;28;8827;-61
2023/05/15 05:40:36;;;;;;;;;30.00;24.00;;;;;13.26;66.06;99571.09;5117824;28;9563;-61
2023/05/15 05:43:04;;;;;;;;;29.50;25.25;;;;;13.28;66.26;99582.50;5117752;28;8824;-60
2023/05/15 05:45:32;;;;;;;;;27.00;23.50;;;;;13.29;66.28;99576.97;5117981;28;8836;-61
2023/05/15 05:48:00;;;;;;;;;38.75;30.00;;;;;13.34;66.29;99582.75;5118159;28;8827;-61
2023/05/15 05:50:28;;;;;;;;;32.75;28.50;;;;;13.40;66.81;99587.50;5117845;28;8820;-60
2023/05/15 05:52:56;;;;;;;;;33.75;29.00;;;;;13.44;66.75;99580.84;5117671;28;8824;-61
2023/05/15 05:55:23;;;;;;;;;27.00;21.75;;;;;13.48;66.66;99582.25;5117843;28;8839;-59
2023/05/15 05:57:51;;;;;;;;;31.75;28.50;;;;;13.53;66.44;99587.16;5117391;28;8859;-58
2023/05/15 06:00:19;;;;;;;;;22.75;20.00;;;;;13.57;66.65;99589.38;5117854;28;8932;-61
2023/05/15 06:02:47;;;;;;;;;28.75;23.00;;;;;13.63;65.89;99587.91;5117393;28;8853;-59
2023/05/15 06:05:15;;;;;;;;;30.25;27.25;;;;;13.67;66.34;99578.63;5117940;28;8851;-61
2023/05/15 06:07:43;;;;;;;;;38.00;32.50;;;;;13.74;66.57;99577.03;5117215;28;8843;-61
2023/05/15 06:10:11;;;;;;;;;21.75;16.75;;;;;13.79;66.15;99583.59;5116303;28;8889;-59
2023/05/15 06:12:39;;;;;;;;;30.75;28.00;;;;;13.81;66.39;99581.59;5116155;28;8848;-61
2023/05/15 06:15:07;;;;;;;;;34.25;30.50;;;;;13.83;66.31;99581.47;5116821;28;9498;-61
2023/05/15 06:17:35;;;;;;;;;28.00;25.25;;;;;13.83;66.13;99578.78;5116773;28;8847;-60
2023/05/15 06:20:04;;;;;;;;;33.75;27.50;;;;;13.82;66.40;99577.94;5116605;28;8835;-59
2023/05/15 06:22:32;;;;;;;;;33.00;27.75;;;;;13.83;66.26;99581.47;5116731;28;8862;-59
2023/05/15 06:25:00;;;;;;;;;33.50;30.75;;;;;13.87;66.34;99586.38;5116666;28;8852;-60
2023/05/15 06:27:28;;;;;;;;;34.50;30.00;;;;;13.98;66.40;99583.44;5117026;28;8885;-61
2023/05/15 06:29:55;;;;;;;;;16.50;13.50;;;;;14.11;66.17;99580.41;5107309;28;8858;-61
2023/05/15 06:32:23;;;;;;;;;29.00;27.25;;;;;14.19;66.16;99578.66;5115727;28;8962;-61
2023/05/15 06:34:51;;;;;;;;;21.50;18.50;;;;;14.27;65.89;99576.06;5116262;28;8876;-61
2023/05/15 06:37:19;;;;;;;;;39.00;35.75;;;;;14.35;65.90;99580.66;5116067;28;8836;-60
2023/05/15 06:39:47;;;;;;;;;26.25;25.25;;;;;14.42;65.79;99581.72;5116049;28;8835;-61
2023/05/15 06:42:15;;;;;;;;;28.67;26.00;;;;;14.52;65.69;99587.84;5115067;28;8855;-61
2023/05/15 06:44:43;;;;;;;;;27.25;24.75;;;;;14.59;64.98;99589.75;5114796;28;8871;-59
2023/05/15 06:47:11;;;;;;;;;41.25;36.00;;;;;14.65;65.71;99589.09;5114308;28;8835;-59
2023/05/15 06:49:39;;;;;;;;;28.25;26.00;;;;;14.73;65.32;99589.16;5113925;28;8854;-61
2023/05/15 06:52:07;;;;;;;;;34.75;29.50;;;;;14.78;64.99;99588.69;5116136;28;8831;-60
2023/05/15 06:54:34;;;;;;;;;29.25;24.00;;;;;14.83;64.72;99589.06;5115142;28;8828;-61
2023/05/15 06:57:02;;;;;;;;;33.75;29.75;;;;;14.90;64.90;99598.16;5116051;28;8878;-61
2023/05/15 06:59:33;;;;;;;;;36.50;34.25;;;;;14.97;64.66;99597.38;5116403;28;8828;-61
2023/05/15 07:02:01;;;;;;;;;39.75;34.00;;;;;15.01;65.02;99596.06;5115073;28;8827;-61
2023/05/15 07:04:30;;;;;;;;;41.75;36.00;;;;;15.03;64.79;99590.53;5116041;28;8848;-61
2023/05/15 07:06:58;;;;;;;;;37.00;35.25;;;;;15.02;64.96;99591.53;5115278;28;8848;-60
2023/05/15 07:09:27;;;;;;;;;28.25;24.00;;;;;15.05;64.64;99596.59;5114571;28;8957;-61
2023/05/15 07:11:55;;;;;;;;;26.75;25.00;;;;;15.11;64.81;99591.41;5106350;28;8830;-59
2023/05/15 07:14:23;;;;;;;;;48.50;36.50;;;;;15.16;64.58;99599.00;5114721;28;9493;-60
2023/05/15 07:16:51;;;;;;;;;36.50;28.25;;;;;15.16;64.72;99594.47;5114395;28;9019;-61
2023/05/15 07:19:19;;;;;;;;;36.50;25.25;;;;;15.21;64.88;99585.94;5115089;28;8824;-61
2023/05/15 07:21:47;;;;;;;;;39.00;30.75;;;;;15.24;65.43;99583.78;5115078;28;8974;-59
2023/05/15 07:24:15;;;;;;;;;31.75;24.75;;;;;15.38;64.76;99590.41;5115631;28;8836;-60
2023/05/15 07:26:43;;;;;;;;;38.25;34.75;;;;;15.48;64.25;99589.28;5115437;28;8860;-59
2023/05/15 07:29:25;;;;;;;;;42.75;39.00;;;;;15.63;64.12;99581.47;5114651;28;8878;-59
2023/05/15 07:31:53;;;;;;;;;25.00;23.25;;;;;15.73;63.86;99582.16;5115302;28;8844;-61
2023/05/15 07:34:22;;;;;;;;;41.75;34.75;;;;;15.77;63.93;99578.16;5114434;28;8855;-59
2023/05/15 07:36:50;;;;;;;;;41.00;36.00;;;;;15.81;64.32;99576.81;5114277;28;8828;-60
2023/05/15 07:39:18;;;;;;;;;41.00;35.00;;;;;15.88;63.64;99576.00;5115183;28;8851;-59
2023/05/15 07:41:46;;;;;;;;;37.50;34.50;;;;;16.02;63.52;99577.19;5115212;28;8925;-59
2023/05/15 07:44:14;;;;;;;;;31.25;26.75;;;;;16.10;63.27;99585.28;5115167;28;8913;-60
2023/05/15 07:46:42;;;;;;;;;27.00;26.00;;;;;16.11;63.82;99570.84;5115982;28;8816;-59
2023/05/15 07:49:11;;;;;;;;;31.00;26.00;;;;;16.16;63.35;99576.56;5116190;28;8926;-61
2023/05/15 07:51:39;;;;;;;;;33.50;27.50;;;;;16.22;63.43;99575.91;5114508;28;8874;-59
2023/05/15 07:54:07;;;;;;;;;37.25;29.00;;;;;16.19;63.71;99585.94;5114755;28;8847;-60
2023/05/15 07:56:35;;;;;;;;;31.25;26.25;;;;;16.31;63.63;99583.78;5115918;28;8848;-59
2023/05/15 07:59:02;;;;;;;;;29.75;28.25;;;;;16.45;63.22;99581.31;5115605;28;8832;-60
2023/05/15 08:01:30;;;;;;;;;44.25;34.75;;;;;16.63;62.99;99570.38;5115703;28;8832;-60
2023/05/15 08:03:59;;;;;;;;;37.00;31.25;;;;;16.80;62.11;99577.41;5115653;28;8836;-59
2023/05/15 08:06:27;;;;;;;;;43.00;35.50;;;;;16.91;62.24;99577.06;5113852;28;8909;-60
2023/05/15 08:08:55;;;;;;;;;34.00;28.75;;;;;17.01;62.53;99581.25;5113626;28;8859;-61
2023/05/15 08:11:23;;;;;;;;;50.75;38.50;;;;;17.05;62.13;99587.13;5113660;28;8828;-60
2023/05/15 08:13:50;;;;;;;;;45.75;41.00;;;;;17.02;62.42;99574.84;5113869;28;8990;-59
2023/05/15 08:16:18;;;;;;;;;38.75;35.75;;;;;17.06;62.77;99570.81;5112589;28;8828;-60
2023/05/15 08:18:46;;;;;;;;;55.00;47.50;;;;;17.12;62.61;99578.22;5114337;28;8863;-60
2023/05/15 08:21:14;;;;;;;;;48.50;41.00;;;;;17.08;62.21;99573.34;5114234;28;8889;-59
2023/05/15 08:23:42;;;;;;;;;45.25;39.75;;;;;17.00;62.50;99571.50;5113858;28;8862;-59
2023/05/15 08:26:10;;;;;;;;;46.50;40.50;;;;;17.00;63.08;99576.88;5113681;28;8973;-59
2023/05/15 08:28:38;;;;;;;;;44.75;39.00;;;;;17.13;62.54;99565.56;5114519;28;8838;-60
2023/05/15 08:31:06;;;;;;;;;49.25;42.75;;;;;17.24;62.38;99562.53;5114496;28;8889;-59
2023/05/15 08:33:34;;;;;;;;;54.50;45.25;;;;;17.34;62.23;99569.38;5114029;28;8995;-60
2023/05/15 08:36:01;;;;;;;;;50.50;40.25;;;;;17.43;62.02;99559.44;5113886;28;8839;-59
2023/05/15 08:38:30;;;;;;;;;50.00;44.50;;;;;17.54;61.74;99565.28;5114626;28;8828;-59
2023/05/15 08:40:58;;;;;;;;;33.50;30.75;;;;;17.64;61.13;99560.53;5113166;28;8859;-59
2023/05/15 08:43:26;;;;;;;;;39.00;34.75;;;;;17.77;61.34;99557.28;5113426;28;8831;-59
2023/05/15 08:45:53;;;;;;;;;51.00;45.00;;;;;17.90;60.88;99566.44;5113991;28;8974;-59
2023/05/15 08:48:21;;;;;;;;;54.50;45.75;;;;;17.99;60.95;99567.25;5113653;28;8835;-61
2023/05/15 08:50:49;;;;;;;;;48.75;39.50;;;;;18.06;60.90;99571.72;5113244;28;8836;-59
2023/05/15 08:53:17;;;;;;;;;51.25;45.00;;;;;18.09;61.26;99568.69;5113989;28;8836;-61
2023/05/15 08:55:46;;;;;;;;;56.50;46.50;;;;;18.10;60.82;99570.38;5113413;28;8982;-60
2023/05/15 08:58:15;;;;;;;;;54.25;44.25;;;;;18.06;61.00;99570.91;5113298;28;8858;-59
2023/05/15 09:00:43;;;;;;;;;47.25;40.75;;;;;18.02;60.85;99567.72;5112801;28;8832;-59
2023/05/15 09:03:12;;;;;;;;;50.25;43.00;;;;;18.01;61.13;99562.50;5112706;28;8957;-60
2023/05/15 09:05:40;;;;;;;;;51.75;42.75;;;;;18.03;61.25;99561.31;5112773;28;8862;-58
2023/05/15 09:08:07;;;;;;;;;60.75;47.00;;;;;18.08;60.82;99558.91;5113476;28;8860;-59
2023/05/15 09:10:36;;;;;;;;;46.00;45.00;;;;;18.09;61.16;99563.31;5112930;28;8828;-59
2023/05/15 09:13:04;;;;;;;;;50.00;45.25;;;;;18.13;60.84;99567.31;5115085;28;9002;-59
2023/05/15 09:15:32;;;;;;;;;59.75;46.50;;;;;18.11;61.02;99555.88;5116788;28;8958;-58
2023/05/15 09:18:00;;;;;;;;;47.75;43.25;;;;;18.10;61.40;99561.44;5117670;28;8966;-59
2023/05/15 09:20:28;;;;;;;;;48.50;38.00;;;;;18.34;60.89;99558.59;5117648;28;8840;-59
2023/05/15 09:22:56;;;;;;;;;53.75;44.00;;;;;18.44;60.53;99562.72;5117592;28;8840;-59
2023/05/15 09:25:24;;;;;;;;;66.50;49.00;;;;;18.39;60.62;99567.84;5117607;28;8820;-59
2023/05/15 09:27:52;;;;;;;;;50.25;39.50;;;;;18.45;60.69;99559.00;5117354;28;8954;-59
2023/05/15 09:30:21;;;;;;;;;63.75;49.50;;;;;18.63;60.74;99551.44;5115935;28;8978;-59
2023/05/15 09:32:50;;;;;;;;;41.00;36.50;;;;;18.80;59.76;99550.25;5116584;28;8832;-59
2023/05/15 09:35:18;;;;;;;;;40.75;32.25;;;;;18.99;59.95;99551.59;5116961;28;8921;-59
2023/05/15 09:37:45;;;;;;;;;55.25;45.50;;;;;19.14;59.38;99553.28;5116614;28;8954;-58
2023/05/15 09:40:15;;;;;;;;;37.75;36.75;;;;;19.39;59.08;99543.91;5116080;28;8855;-59
2023/05/15 09:42:43;;;;;;;;;52.25;46.75;;;;;19.65;58.05;99538.81;5115935;28;8847;-60
2023/05/15 09:45:11;;;;;;;;;52.25;41.25;;;;;19.83;58.12;99544.66;5115470;28;8950;-59
2023/05/15 09:47:39;;;;;;;;;48.50;43.75;;;;;19.99;57.95;99533.63;5115050;28;8836;-60
2023/05/15 09:50:07;;;;;;;;;44.00;36.25;;;;;20.03;57.44;99536.78;5114739;28;8844;-59
2023/05/15 09:52:35;;;;;;;;;43.75;38.00;;;;;20.05;57.85;99549.09;5116173;28;8836;-60
2023/05/15 09:55:03;;;;;;;;;56.50;48.00;;;;;20.09;57.62;99544.16;5117012;28;8843;-60
2023/05/15 09:57:31;;;;;;;;;49.50;39.25;;;;;20.12;57.98;99547.31;5116638;28;9521;-60
2023/05/15 09:59:59;;;;;;;;;53.25;46.75;;;;;20.59;56.66;99542.13;5116695;28;8855;-59
2023/05/15 10:02:30;;;;;;;;;49.80;41.40;;;;;21.03;55.87;99535.41;5115654;28;8866;-59
2023/05/15 10:04:59;;;;;;;;;34.20;30.40;;;;;21.30;55.60;99533.69;5117893;28;8858;-60
2023/05/15 10:07:27;;;;;;;;;47.80;43.00;;;;;21.59;55.22;99542.41;5117683;28;8894;-58
2023/05/15 10:09:55;;;;;;;;;43.00;38.40;;;;;22.00;54.50;99539.69;5117478;28;8873;-59
2023/05/15 10:12:23;;;;;;;;;39.00;35.00;;;;;22.33;53.91;99535.97;5116422;28;8827;-58
2023/05/15 10:14:51;;;;;;;;;43.60;38.80;;;;;22.46;54.25;99541.44;5116196;28;8840;-59
2023/05/15 10:17:19;;;;;;;;;41.80;37.40;;;;;22.57;53.85;99537.28;5115564;28;8840;-58
2023/05/15 10:19:47;;;;;;;;;39.00;35.60;;;;;22.92;53.02;99534.13;5115625;28;8913;-60
2023/05/15 10:22:25;;;;;;;;;45.80;38.20;;;;;23.44;52.09;99539.50;5115448;28;8831;-60
2023/05/15 10:24:52;;;;;;;;;33.80;30.60;;;;;24.04;51.35;99524.63;5114759;28;8843;-59
2023/05/15 10:27:20;;;;;;;;;43.60;37.00;;;;;24.44;51.06;99523.31;5114502;28;8843;-59
2023/05/15 10:29:49;;;;;;;;;32.80;28.80;;;;;24.28;51.18;99521.94;5114911;28;8823;-58
2023/05/15 10:32:16;;;;;;;;;37.20;34.40;;;;;24.18;51.56;99523.47;5115358;28;9501;-57
2023/05/15 10:34:44;;;;;;;;;40.40;38.80;;;;;24.38;51.20;99532.34;5115211;28;9017;-60
2023/05/15 10:37:12;;;;;;;;;41.20;35.20;;;;;24.64;50.92;99519.41;5115163;28;8922;-60
2023/05/15 10:39:40;;;;;;;;;31.60;26.40;;;;;25.02;50.79;99522.03;5116119;28;8840;-59
2023/05/15 10:42:08;;;;;;;;;33.60;32.20;;;;;25.48;49.50;99516.94;5115878;28;9501;-58
2023/05/15 10:44:36;;;;;;;;;22.40;20.00;;;;;25.82;48.70;99517.94;5116482;28;8969;-59
2023/05/15 10:47:04;;;;;;;;;29.60;27.60;;;;;25.75;49.40;99509.00;5116873;28;8827;-61
2023/05/15 10:49:32;;;;;;;;;28.00;27.00;;;;;25.90;49.23;99514.13;5116357;28;8831;-60
2023/05/15 10:52:00;;;;;;;;;29.00;27.00;;;;;25.57;49.35;99494.59;5115673;28;8852;-59
2023/05/15 10:54:28;;;;;;;;;25.40;23.80;;;;;25.48;49.51;99506.03;5115018;28;8920;-59
2023/05/15 10:56:56;;;;;;;;;27.20;24.60;;;;;25.90;48.78;99501.28;5116135;28;9006;-58
2023/05/15 10:59:24;;;;;;;;;30.20;26.00;;;;;26.20;48.48;99496.66;5115914;28;8990;-58
2023/05/15 11:01:52;;;;;;;;;24.60;23.40;;;;;26.26;48.11;99506.63;5116095;28;8839;-60
2023/05/15 11:04:20;;;;;;;;;26.40;24.00;;;;;26.05;48.78;99490.78;5115669;28;8909;-58
2023/05/15 11:06:48;;;;;;;;;24.40;23.40;;;;;26.00;48.81;99496.13;5115091;28;9177;-59
2023/05/15 11:09:16;;;;;;;;;22.80;21.80;;;;;26.37;47.86;99497.66;5113773;28;8864;-58
2023/05/15 11:11:44;;;;;;;;;18.80;18.20;;;;;26.93;47.00;99505.38;5115202;28;8854;-58
2023/05/15 11:14:12;;;;;;;;;20.20;17.20;;;;;27.29;46.17;99497.78;5115008;28;8820;-59
2023/05/15 11:16:40;;;;;;;;;24.60;22.80;;;;;27.63;45.46;99488.63;5114341;28;9506;-58
2023/05/15 11:19:09;;;;;;;;;23.80;21.40;;;;;27.62;46.16;99497.94;5114185;28;8836;-58
2023/05/15 11:21:37;;;;;;;;;20.60;20.40;;;;;27.38;46.18;99500.97;5114167;28;8832;-58
2023/05/15 11:24:05;;;;;;;;;23.40;22.00;;;;;27.49;46.52;99498.22;5112994;28;8869;-59
2023/05/15 11:26:32;;;;;;;;;30.60;24.00;;;;;27.06;47.25;99492.28;5112896;28;9546;-58
2023/05/15 11:29:01;;;;;;;;;25.20;23.80;;;;;26.41;48.42;99498.84;5113656;28;8846;-58
2023/05/15 11:31:29;;;;;;;;;24.80;23.40;;;;;25.63;49.42;99487.38;5113817;28;8835;-59
2023/05/15 11:33:57;;;;;;;;;28.00;24.20;;;;;25.06;50.75;99490.50;5113479;28;9723;-58